createdAt,value
2023-03-31T00:01:01.000Z,6.99
2023-03-31T00:03:29.851Z,6.95
2023-03-31T00:05:58.957Z,6.90
2023-03-31T00:08:30.951Z,6.88
2023-03-31T00:11:00.961Z,6.94
2023-03-31T00:13:29.430Z,6.95
2023-03-31T00:15:58.453Z,7.01
2023-03-31T00:18:27.166Z,7.02
2023-03-31T00:20:58.882Z,7.00
2023-03-31T00:23:30.138Z,6.96
2023-03-31T00:25:58.721Z,6.87
2023-03-31T00:28:27.157Z,6.75
2023-03-31T00:30:55.530Z,6.69
2023-03-31T00:33:23.991Z,6.67
2023-03-31T00:35:52.947Z,6.61
2023-03-31T00:38:22.126Z,6.45
2023-03-31T00:40:53.909Z,6.43
2023-03-31T00:43:31.200Z,6.34
2023-03-31T00:46:18.124Z,6.30
2023-03-31T00:48:50.340Z,6.29
2023-03-31T00:51:20.300Z,6.27
2023-03-31T00:53:52.029Z,6.29
2023-03-31T00:56:22.455Z,6.37
2023-03-31T00:58:51.051Z,6.34
2023-03-31T01:01:22.143Z,6.33
2023-03-31T01:03:52.951Z,6.34
2023-03-31T01:06:21.441Z,6.36
2023-03-31T01:08:51.310Z,6.34
2023-03-31T01:11:22.678Z,6.26
2023-03-31T01:13:53.025Z,6.21
2023-03-31T01:16:21.495Z,6.14
2023-03-31T01:18:50.602Z,6.06
2023-03-31T01:21:40.050Z,6.06
2023-03-31T01:24:19.381Z,6.05
2023-03-31T01:26:59.035Z,6.01
2023-03-31T01:29:44.133Z,5.98
2023-03-31T01:32:22.417Z,5.94
2023-03-31T01:35:08.704Z,5.93
2023-03-31T01:37:52.330Z,5.85
2023-03-31T01:40:26.786Z,5.81
2023-03-31T01:42:58.469Z,5.71
2023-03-31T01:45:37.595Z,5.63
2023-03-31T01:48:13.258Z,5.68
2023-03-31T01:50:46.062Z,5.61
2023-03-31T01:53:18.494Z,5.56
2023-03-31T01:55:55.954Z,5.59
2023-03-31T01:58:27.255Z,5.61
2023-03-31T02:01:02.023Z,5.63
2023-03-31T02:03:34.656Z,5.59
2023-03-31T02:06:09.913Z,5.58
2023-03-31T02:08:41.889Z,5.56
2023-03-31T02:11:11.935Z,5.62
2023-03-31T02:13:42.042Z,5.72
2023-03-31T02:16:14.557Z,5.74
2023-03-31T02:18:45.775Z,5.73
2023-03-31T02:21:14.904Z,5.74
2023-03-31T02:23:45.932Z,5.69
2023-03-31T02:26:17.528Z,5.62
2023-03-31T02:28:46.295Z,5.58
2023-03-31T02:31:19.626Z,5.55
2023-03-31T02:33:48.796Z,5.53
2023-03-31T02:36:17.622Z,5.54
2023-03-31T02:38:49.522Z,5.63
2023-03-31T02:41:19.451Z,5.68
2023-03-31T02:43:47.944Z,5.66
2023-03-31T02:46:16.372Z,5.68
2023-03-31T02:48:46.025Z,5.68
2023-03-31T02:51:24.967Z,5.62
2023-03-31T02:54:07.897Z,5.58
2023-03-31T02:57:01.680Z,5.64
2023-03-31T02:59:40.971Z,5.78
2023-03-31T03:02:15.007Z,5.82
2023-03-31T03:04:55.938Z,5.91
2023-03-31T03:07:26.889Z,6.00
2023-03-31T03:10:01.383Z,6.05
2023-03-31T03:12:35.514Z,6.10
2023-03-31T03:15:07.275Z,6.15
2023-03-31T03:17:39.444Z,6.12
2023-03-31T03:20:09.786Z,6.13
2023-03-31T03:22:38.817Z,6.16
2023-03-31T03:25:09.708Z,6.14
2023-03-31T03:27:39.957Z,6.08
2023-03-31T03:30:10.015Z,5.95
2023-03-31T03:32:38.884Z,5.93
2023-03-31T03:35:08.083Z,5.90
2023-03-31T03:37:36.429Z,5.87
2023-03-31T03:40:06.217Z,5.89
2023-03-31T03:42:35.007Z,5.91
2023-03-31T03:45:05.036Z,5.99
2023-03-31T03:47:33.511Z,6.03
2023-03-31T03:50:01.801Z,6.07
2023-03-31T03:52:30.653Z,6.09
2023-03-31T03:54:59.100Z,6.15
2023-03-31T03:57:27.629Z,6.15
2023-03-31T03:59:56.189Z,6.16
2023-03-31T04:02:29.038Z,6.18
2023-03-31T04:04:58.379Z,6.19
2023-03-31T04:07:27.264Z,6.21
2023-03-31T04:09:55.690Z,6.25
2023-03-31T04:12:24.079Z,6.30
2023-03-31T04:14:52.593Z,6.33
2023-03-31T04:17:33.805Z,6.38
2023-03-31T04:20:06.071Z,6.34
2023-03-31T04:22:41.239Z,6.31
2023-03-31T04:25:15.161Z,6.35
2023-03-31T04:27:46.958Z,6.36
2023-03-31T04:30:23.091Z,6.33
2023-03-31T04:32:54.309Z,6.36
2023-03-31T04:35:26.334Z,6.33
2023-03-31T04:37:59.429Z,6.33
2023-03-31T04:40:27.984Z,6.30
2023-03-31T04:42:56.424Z,6.28
2023-03-31T04:45:25.015Z,6.31
2023-03-31T04:47:53.516Z,6.39
2023-03-31T04:50:23.394Z,6.43
2023-03-31T04:52:52.310Z,6.38
2023-03-31T04:55:20.687Z,6.31
2023-03-31T04:57:49.199Z,6.26
2023-03-31T05:00:18.213Z,6.23
2023-03-31T05:02:46.663Z,6.21
2023-03-31T05:05:15.610Z,6.17
2023-03-31T05:07:46.386Z,6.22
2023-03-31T05:10:14.809Z,6.30
2023-03-31T05:12:43.205Z,6.42
2023-03-31T05:15:12.118Z,6.49
2023-03-31T05:17:40.599Z,6.54
2023-03-31T05:20:09.732Z,6.61
2023-03-31T05:22:38.872Z,6.64
2023-03-31T05:25:10.317Z,6.73
2023-03-31T05:27:39.156Z,6.72
2023-03-31T05:30:08.434Z,6.70
2023-03-31T05:32:36.975Z,6.74
2023-03-31T05:35:05.590Z,6.81
2023-03-31T05:37:34.689Z,6.80
2023-03-31T05:40:04.986Z,6.82
2023-03-31T05:42:34.909Z,6.90
2023-03-31T05:45:03.315Z,6.96
2023-03-31T05:47:32.543Z,6.94
2023-03-31T05:50:01.062Z,6.83
2023-03-31T05:52:29.508Z,6.74
2023-03-31T05:54:57.904Z,6.75
2023-03-31T05:57:26.438Z,6.84
2023-03-31T05:59:56.333Z,6.90
2023-03-31T06:02:25.070Z,6.97
2023-03-31T06:04:53.501Z,6.98
2023-03-31T06:07:22.422Z,6.90
2023-03-31T06:09:50.802Z,6.83
2023-03-31T06:12:19.332Z,6.87
2023-03-31T06:14:47.676Z,6.90
2023-03-31T06:17:17.642Z,6.95
2023-03-31T06:19:46.057Z,7.00
2023-03-31T06:22:14.438Z,7.03
2023-03-31T06:24:42.885Z,7.00
2023-03-31T06:27:11.351Z,7.08
2023-03-31T06:29:39.828Z,7.08
2023-03-31T06:32:08.310Z,7.13
2023-03-31T06:34:38.242Z,7.19
2023-03-31T06:37:06.773Z,7.27
2023-03-31T06:39:35.108Z,7.27
2023-03-31T06:42:04.993Z,7.30
2023-03-31T06:44:34.541Z,7.31
2023-03-31T06:47:02.896Z,7.42
2023-03-31T06:49:31.326Z,7.37
2023-03-31T06:52:01.442Z,7.29
2023-03-31T06:54:29.817Z,7.34
2023-03-31T06:56:58.328Z,7.46
2023-03-31T06:59:26.743Z,7.50
2023-03-31T07:01:55.207Z,7.56
2023-03-31T07:04:23.882Z,7.63
2023-03-31T07:06:52.265Z,7.65
2023-03-31T07:09:23.848Z,7.76
2023-03-31T07:11:52.333Z,7.82
2023-03-31T07:14:20.647Z,7.83
2023-03-31T07:16:51.031Z,7.80
2023-03-31T07:19:19.637Z,7.81
2023-03-31T07:21:47.954Z,7.92
2023-03-31T07:24:16.470Z,7.99
2023-03-31T07:26:46.488Z,8.07
2023-03-31T07:29:14.885Z,8.13
2023-03-31T07:31:43.375Z,8.07
2023-03-31T07:34:11.926Z,8.11
2023-03-31T07:36:41.338Z,8.10
2023-03-31T07:39:09.746Z,8.18
2023-03-31T07:41:38.077Z,8.30
2023-03-31T07:44:07.890Z,8.39
2023-03-31T07:46:36.477Z,8.46
2023-03-31T07:49:04.975Z,8.48
2023-03-31T07:51:33.388Z,8.47
2023-03-31T07:54:01.787Z,8.50
2023-03-31T07:56:30.187Z,8.49
2023-03-31T07:58:58.639Z,8.53
2023-03-31T08:01:29.065Z,8.61
2023-03-31T08:03:57.709Z,8.70
2023-03-31T08:06:27.040Z,8.83
2023-03-31T08:08:55.639Z,9.03
2023-03-31T08:11:24.556Z,9.08
2023-03-31T08:13:53.326Z,9.17
2023-03-31T08:16:21.668Z,9.32
2023-03-31T08:18:52.051Z,9.48
2023-03-31T08:21:22.987Z,9.73
2023-03-31T08:23:55.286Z,10.03
2023-03-31T08:26:24.491Z,10.37
2023-03-31T08:28:53.094Z,10.45
2023-03-31T08:31:26.675Z,10.51
2023-03-31T08:33:57.583Z,10.47
2023-03-31T08:36:26.232Z,10.52
2023-03-31T08:38:54.757Z,10.67
2023-03-31T08:41:35.700Z,10.97
2023-03-31T08:44:06.553Z,11.16
2023-03-31T08:46:36.930Z,11.49
2023-03-31T08:49:07.562Z,11.42
2023-03-31T08:51:38.799Z,11.46
2023-03-31T08:54:08.256Z,11.56
2023-03-31T08:56:40.058Z,11.50
2023-03-31T08:59:17.855Z,11.58
2023-03-31T09:02:02.410Z,11.75
2023-03-31T09:04:45.043Z,12.06
2023-03-31T09:07:17.576Z,12.23
2023-03-31T09:09:51.966Z,12.25
2023-03-31T09:12:22.529Z,12.19
2023-03-31T09:14:56.125Z,12.10
2023-03-31T09:17:26.176Z,12.07
2023-03-31T09:19:59.265Z,12.13
2023-03-31T09:22:30.595Z,12.12
2023-03-31T09:25:02.801Z,12.09
2023-03-31T09:27:35.114Z,12.17
2023-03-31T09:30:05.915Z,12.27
2023-03-31T09:32:34.354Z,12.38
2023-03-31T09:35:15.639Z,12.45
2023-03-31T09:37:44.105Z,12.42
2023-03-31T09:40:18.173Z,12.44
2023-03-31T09:42:47.347Z,12.42
2023-03-31T09:45:17.262Z,12.42
2023-03-31T09:47:47.576Z,12.44
2023-03-31T09:50:17.664Z,12.37
2023-03-31T09:52:48.038Z,12.42
2023-03-31T09:55:35.873Z,12.48
2023-03-31T09:58:08.617Z,12.61
2023-03-31T10:00:37.678Z,12.82
2023-03-31T10:03:08.123Z,13.00
2023-03-31T10:05:40.937Z,13.13
2023-03-31T10:08:21.274Z,13.25
2023-03-31T10:10:51.174Z,13.29
2023-03-31T10:13:22.058Z,13.36
2023-03-31T10:15:53.471Z,13.47
2023-03-31T10:18:23.190Z,13.56
2023-03-31T10:20:54.225Z,13.44
2023-03-31T10:23:26.214Z,13.47
2023-03-31T10:25:55.066Z,13.41
2023-03-31T10:28:24.038Z,13.33
2023-03-31T10:30:55.165Z,13.38
2023-03-31T10:33:25.969Z,13.27
2023-03-31T10:35:59.230Z,13.13
2023-03-31T10:38:29.297Z,13.10
2023-03-31T10:40:59.000Z,13.05
2023-03-31T10:43:28.737Z,12.92
2023-03-31T10:45:59.095Z,12.84
2023-03-31T10:48:28.396Z,12.82
2023-03-31T10:51:00.394Z,12.85
2023-03-31T10:53:29.278Z,12.82
2023-03-31T10:56:11.082Z,12.86
2023-03-31T10:58:52.076Z,12.91
2023-03-31T11:01:36.638Z,12.94
2023-03-31T11:04:16.445Z,13.01
2023-03-31T11:06:54.102Z,13.12
2023-03-31T11:09:36.813Z,13.26
2023-03-31T11:12:11.885Z,13.42
2023-03-31T11:14:44.856Z,13.58
2023-03-31T11:17:19.111Z,13.68
2023-03-31T11:19:53.456Z,13.76
2023-03-31T11:22:27.588Z,13.85
2023-03-31T11:25:07.216Z,13.96
2023-03-31T11:27:50.149Z,14.07
2023-03-31T11:30:21.826Z,14.16
2023-03-31T11:32:57.636Z,14.24
2023-03-31T11:35:43.798Z,14.18
2023-03-31T11:38:30.429Z,14.24
2023-03-31T11:41:02.053Z,14.29
2023-03-31T11:43:34.897Z,14.35
2023-03-31T11:46:06.153Z,14.42
2023-03-31T11:48:39.018Z,14.47
2023-03-31T11:51:11.577Z,14.44
2023-03-31T11:53:43.443Z,14.50
2023-03-31T11:56:12.406Z,14.51
2023-03-31T11:58:43.904Z,14.47
2023-03-31T12:01:18.387Z,14.41
2023-03-31T12:03:52.465Z,14.36
2023-03-31T12:06:23.548Z,14.33
2023-03-31T12:08:59.159Z,14.33
2023-03-31T12:11:31.146Z,14.35
2023-03-31T12:14:03.498Z,14.39
2023-03-31T12:16:37.101Z,14.47
2023-03-31T12:19:09.505Z,14.55
2023-03-31T12:21:40.466Z,14.61
2023-03-31T12:24:13.480Z,14.66
2023-03-31T12:26:48.597Z,14.70
2023-03-31T12:29:23.599Z,14.74
2023-03-31T12:31:54.019Z,14.78
2023-03-31T12:34:24.828Z,14.94
2023-03-31T12:37:02.151Z,15.11
2023-03-31T12:39:40.777Z,15.32
2023-03-31T12:42:25.173Z,15.81
2023-03-31T12:44:58.840Z,16.10
2023-03-31T12:47:41.618Z,16.32
2023-03-31T12:50:21.829Z,16.62
2023-03-31T12:52:56.493Z,16.80
2023-03-31T12:55:42.764Z,16.90
2023-03-31T12:58:22.393Z,16.92
2023-03-31T13:01:07.251Z,16.83
2023-03-31T13:03:45.383Z,16.60
2023-03-31T13:06:33.931Z,16.48
2023-03-31T13:09:05.331Z,16.29
2023-03-31T13:11:39.638Z,16.20
2023-03-31T13:14:13.826Z,16.16
2023-03-31T13:16:43.878Z,16.10
2023-03-31T13:19:14.136Z,16.05
2023-03-31T13:21:53.511Z,16.07
2023-03-31T13:24:25.252Z,15.98
2023-03-31T13:26:56.974Z,15.95
2023-03-31T13:29:26.543Z,15.90
2023-03-31T13:32:05.721Z,15.85
2023-03-31T13:34:39.581Z,15.85
2023-03-31T13:37:17.211Z,15.82
2023-03-31T13:40:08.624Z,15.79
2023-03-31T13:42:54.032Z,15.76
2023-03-31T13:45:29.475Z,15.74
2023-03-31T13:48:05.618Z,15.68
2023-03-31T13:50:53.308Z,15.67
2023-03-31T13:53:30.065Z,15.63
2023-03-31T13:56:10.028Z,15.58
2023-03-31T13:58:49.728Z,15.55
2023-03-31T14:01:36.149Z,15.54
2023-03-31T14:04:15.127Z,15.56
2023-03-31T14:06:48.827Z,15.57
2023-03-31T14:09:22.350Z,15.58
2023-03-31T14:11:50.848Z,15.59
2023-03-31T14:14:20.098Z,15.59
2023-03-31T14:16:50.832Z,15.59
2023-03-31T14:19:30.342Z,15.59
2023-03-31T14:22:06.097Z,15.65
2023-03-31T14:24:39.120Z,15.76
2023-03-31T14:27:13.709Z,15.90
2023-03-31T14:29:45.281Z,16.06
2023-03-31T14:32:21.197Z,16.26
2023-03-31T14:35:00.291Z,16.37
2023-03-31T14:37:31.052Z,16.41
2023-03-31T14:40:00.139Z,16.40
2023-03-31T14:42:31.202Z,16.35
2023-03-31T14:45:03.356Z,16.56
2023-03-31T14:47:32.133Z,16.74
2023-03-31T14:50:02.950Z,16.83
2023-03-31T14:52:36.032Z,16.77
2023-03-31T14:55:04.611Z,16.71
2023-03-31T14:57:34.329Z,16.64
2023-03-31T15:00:05.416Z,16.66
2023-03-31T15:02:35.603Z,16.65
2023-03-31T15:05:05.651Z,16.61
2023-03-31T15:07:36.289Z,16.57
2023-03-31T15:10:06.250Z,16.52
2023-03-31T15:12:35.261Z,16.46
2023-03-31T15:15:06.365Z,16.41
2023-03-31T15:17:39.302Z,16.33
2023-03-31T15:20:25.719Z,16.26
2023-03-31T15:22:55.681Z,16.19
2023-03-31T15:25:25.940Z,16.16
2023-03-31T15:27:56.021Z,16.09
2023-03-31T15:30:26.239Z,16.04
2023-03-31T15:32:58.959Z,16.01
2023-03-31T15:35:38.033Z,15.98
2023-03-31T15:38:08.141Z,15.94
2023-03-31T15:40:39.868Z,15.86
2023-03-31T15:43:24.350Z,15.80
2023-03-31T15:45:55.320Z,15.75
2023-03-31T15:48:24.993Z,15.71
2023-03-31T15:51:00.192Z,15.65
2023-03-31T15:53:37.436Z,15.60
2023-03-31T15:56:07.126Z,15.54
2023-03-31T15:58:46.388Z,15.47
2023-03-31T16:01:17.935Z,15.39
2023-03-31T16:03:46.645Z,15.33
2023-03-31T16:06:22.426Z,15.28
2023-03-31T16:08:57.593Z,15.22
2023-03-31T16:11:28.493Z,15.16
2023-03-31T16:14:01.315Z,15.11
2023-03-31T16:16:30.949Z,15.05
2023-03-31T16:19:04.387Z,15.02
2023-03-31T16:21:37.427Z,14.97
2023-03-31T16:24:08.034Z,14.91
2023-03-31T16:26:37.844Z,14.85
2023-03-31T16:29:06.778Z,14.78
2023-03-31T16:31:36.647Z,14.74
2023-03-31T16:34:06.442Z,14.72
2023-03-31T16:36:35.192Z,14.71
2023-03-31T16:39:05.517Z,14.66
2023-03-31T16:41:36.902Z,14.55
2023-03-31T16:44:06.597Z,14.49
2023-03-31T16:46:35.074Z,14.48
2023-03-31T16:49:03.475Z,14.46
2023-03-31T16:51:31.902Z,14.41
2023-03-31T16:54:00.288Z,14.37
2023-03-31T16:56:28.806Z,14.33
2023-03-31T16:58:59.215Z,14.30
2023-03-31T17:01:28.316Z,14.25
2023-03-31T17:03:57.025Z,14.20
2023-03-31T17:06:25.658Z,14.13
2023-03-31T17:08:54.091Z,14.11
2023-03-31T17:11:23.020Z,14.09
2023-03-31T17:13:51.397Z,14.05
2023-03-31T17:16:29.425Z,14.00
2023-03-31T17:19:05.209Z,13.95
2023-03-31T17:21:33.561Z,13.91
2023-03-31T17:24:03.252Z,13.89
2023-03-31T17:26:32.047Z,13.92
2023-03-31T17:29:00.747Z,13.92
2023-03-31T17:31:32.144Z,13.95
2023-03-31T17:34:01.628Z,14.03
2023-03-31T17:36:30.159Z,14.07
2023-03-31T17:39:00.582Z,14.10
2023-03-31T17:41:30.178Z,14.07
2023-03-31T17:43:58.953Z,14.03
2023-03-31T17:46:27.581Z,14.00
2023-03-31T17:48:58.890Z,13.98
2023-03-31T17:51:28.026Z,13.95
2023-03-31T17:53:56.407Z,13.93
2023-03-31T17:56:27.443Z,13.87
2023-03-31T17:58:57.464Z,13.81
2023-03-31T18:01:26.102Z,13.75
2023-03-31T18:03:57.879Z,13.65
2023-03-31T18:06:26.441Z,13.59
2023-03-31T18:08:54.884Z,13.55
2023-03-31T18:11:23.435Z,13.48
2023-03-31T18:13:51.988Z,13.42
2023-03-31T18:16:20.546Z,13.37
2023-03-31T18:18:49.235Z,13.34
2023-03-31T18:21:19.159Z,13.28
2023-03-31T18:23:52.702Z,13.25
2023-03-31T18:26:22.086Z,13.17
2023-03-31T18:28:50.598Z,13.11
2023-03-31T18:31:19.137Z,13.06
2023-03-31T18:33:48.007Z,13.04
2023-03-31T18:36:18.081Z,13.01
2023-03-31T18:38:48.487Z,12.94
2023-03-31T18:41:17.806Z,12.89
2023-03-31T18:43:48.015Z,12.85
2023-03-31T18:46:16.583Z,12.81
2023-03-31T18:48:45.006Z,12.77
2023-03-31T18:51:14.443Z,12.73
2023-03-31T18:53:42.933Z,12.69
2023-03-31T18:56:12.868Z,12.66
2023-03-31T18:58:41.307Z,12.63
2023-03-31T19:01:09.760Z,12.57
2023-03-31T19:03:38.263Z,12.55
2023-03-31T19:06:10.266Z,12.51
2023-03-31T19:08:39.311Z,12.45
2023-03-31T19:11:08.310Z,12.39
2023-03-31T19:13:38.455Z,12.34
2023-03-31T19:16:07.489Z,12.27
2023-03-31T19:18:36.515Z,12.23
2023-03-31T19:21:05.045Z,12.19
2023-03-31T19:23:34.449Z,12.14
2023-03-31T19:26:04.082Z,12.11
2023-03-31T19:28:32.625Z,12.09
2023-03-31T19:31:04.965Z,12.07
2023-03-31T19:33:33.583Z,12.06
2023-03-31T19:36:02.243Z,12.08
2023-03-31T19:38:32.442Z,12.07
2023-03-31T19:41:01.371Z,12.08
2023-03-31T19:43:30.882Z,12.09
2023-03-31T19:46:00.561Z,12.04
2023-03-31T19:48:34.291Z,12.01
2023-03-31T19:51:06.242Z,11.99
2023-03-31T19:53:35.112Z,11.99
2023-03-31T19:56:04.913Z,11.95
2023-03-31T19:58:35.435Z,11.94
2023-03-31T20:01:04.829Z,11.92
2023-03-31T20:03:35.149Z,11.87
2023-03-31T20:06:06.212Z,11.81
2023-03-31T20:08:35.090Z,11.79
2023-03-31T20:11:04.500Z,11.77
2023-03-31T20:13:35.919Z,11.76
2023-03-31T20:16:06.238Z,11.73
2023-03-31T20:18:37.340Z,11.69
2023-03-31T20:21:07.085Z,11.66
2023-03-31T20:23:36.852Z,11.60
2023-03-31T20:26:08.499Z,11.53
2023-03-31T20:28:37.917Z,11.47
2023-03-31T20:31:09.470Z,11.43
2023-03-31T20:33:39.391Z,11.40
2023-03-31T20:36:09.104Z,11.35
2023-03-31T20:38:38.114Z,11.27
2023-03-31T20:41:06.759Z,11.23
2023-03-31T20:43:35.882Z,11.19
2023-03-31T20:46:05.313Z,11.17
2023-03-31T20:48:36.567Z,11.15
2023-03-31T20:51:07.789Z,11.12
2023-03-31T20:53:42.343Z,11.06
2023-03-31T20:56:11.232Z,11.02
2023-03-31T20:58:41.116Z,11.00
2023-03-31T21:01:11.190Z,10.95
2023-03-31T21:03:39.683Z,10.89
2023-03-31T21:06:11.332Z,10.82
2023-03-31T21:08:40.906Z,10.75
2023-03-31T21:11:10.304Z,10.71
2023-03-31T21:13:39.071Z,10.65
2023-03-31T21:16:07.545Z,10.61
2023-03-31T21:18:37.755Z,10.56
2023-03-31T21:21:07.685Z,10.54
2023-03-31T21:23:38.098Z,10.52
2023-03-31T21:26:07.641Z,10.47
2023-03-31T21:28:37.717Z,10.45
2023-03-31T21:31:07.296Z,10.46
2023-03-31T21:33:37.962Z,10.48
2023-03-31T21:36:08.011Z,10.48
2023-03-31T21:38:38.306Z,10.50
2023-03-31T21:41:07.957Z,10.52
2023-03-31T21:43:36.907Z,10.50
2023-03-31T21:46:05.503Z,10.50
2023-03-31T21:48:34.205Z,10.50
2023-03-31T21:51:03.275Z,10.47
2023-03-31T21:53:32.634Z,10.46
2023-03-31T21:56:02.943Z,10.43
2023-03-31T21:58:31.379Z,10.42
2023-03-31T22:01:01.356Z,10.38
2023-03-31T22:03:32.520Z,10.32
2023-03-31T22:06:01.647Z,10.29
2023-03-31T22:08:31.845Z,10.25
2023-03-31T22:11:00.701Z,10.18
2023-03-31T22:13:31.076Z,10.15
2023-03-31T22:16:02.133Z,10.10
2023-03-31T22:18:30.716Z,10.07
2023-03-31T22:20:59.486Z,10.01
2023-03-31T22:23:28.708Z,9.99
2023-03-31T22:25:57.132Z,9.95
2023-03-31T22:28:25.590Z,9.92
2023-03-31T22:30:55.400Z,9.89
2023-03-31T22:33:23.830Z,9.84
2023-03-31T22:35:52.234Z,9.82
2023-03-31T22:38:20.709Z,9.82
2023-03-31T22:40:49.121Z,9.83
2023-03-31T22:43:17.831Z,9.83
2023-03-31T22:45:46.380Z,9.80
2023-03-31T22:48:16.328Z,9.78
2023-03-31T22:50:45.878Z,9.75
2023-03-31T22:53:14.344Z,9.72
2023-03-31T22:55:44.190Z,9.69
2023-03-31T22:58:23.969Z,9.65
2023-03-31T23:00:58.454Z,9.62
2023-03-31T23:03:28.473Z,9.60
2023-03-31T23:05:56.941Z,9.57
2023-03-31T23:08:25.340Z,9.57
2023-03-31T23:10:58.324Z,9.51
2023-03-31T23:13:26.839Z,9.39
2023-03-31T23:15:55.752Z,9.32
2023-03-31T23:18:25.141Z,9.26
2023-03-31T23:20:55.030Z,9.20
2023-03-31T23:23:23.289Z,9.14
2023-03-31T23:25:51.741Z,9.03
2023-03-31T23:28:20.195Z,8.97
2023-03-31T23:30:53.228Z,8.90
2023-03-31T23:33:21.748Z,8.88
2023-03-31T23:35:51.316Z,8.89
2023-03-31T23:38:21.466Z,8.80
2023-03-31T23:40:49.866Z,8.69
2023-03-31T23:43:18.318Z,8.67
2023-03-31T23:45:47.040Z,8.71
2023-03-31T23:48:15.685Z,8.68
2023-03-31T23:50:44.067Z,8.60
2023-03-31T23:53:13.112Z,8.55
2023-03-31T23:55:42.953Z,8.46
2023-03-31T23:58:11.435Z,8.36
